createdAt,value
2022-08-29T00:01:41.839Z,99.90
2022-08-29T00:04:47.926Z,99.90
2022-08-29T00:07:14.891Z,99.90
2022-08-29T00:09:41.935Z,99.90
2022-08-29T00:12:51.387Z,99.90
2022-08-29T00:15:21.683Z,99.90
2022-08-29T00:17:49.836Z,99.90
2022-08-29T00:20:34.373Z,99.90
2022-08-29T00:23:06.587Z,99.90
2022-08-29T00:25:34.340Z,99.90
2022-08-29T00:28:12.019Z,99.90
2022-08-29T00:30:40.074Z,99.90
2022-08-29T00:33:08.444Z,99.90
2022-08-29T00:36:14.916Z,99.90
2022-08-29T00:38:42.470Z,99.90
2022-08-29T00:41:10.598Z,99.90
2022-08-29T00:43:45.022Z,99.90
2022-08-29T00:46:30.244Z,99.90
2022-08-29T00:49:02.834Z,99.90
2022-08-29T00:51:35.032Z,99.90
2022-08-29T00:54:06.767Z,99.90
2022-08-29T00:56:34.812Z,99.90
2022-08-29T01:02:49.355Z,99.90
2022-08-29T01:05:55.373Z,99.90
2022-08-29T01:08:22.461Z,99.90
2022-08-29T01:17:47.716Z,99.90
2022-08-29T01:20:58.128Z,99.90
2022-08-29T01:26:53.104Z,99.90
2022-08-29T01:33:08.986Z,99.90
2022-08-29T01:35:43.596Z,99.90
2022-08-29T01:38:10.618Z,99.90
2022-08-29T01:40:38.495Z,99.90
2022-08-29T01:43:06.608Z,99.90
2022-08-29T01:45:33.707Z,99.90
2022-08-29T01:48:03.500Z,99.90
2022-08-29T01:58:18.338Z,99.90
2022-08-29T02:04:32.987Z,99.90
2022-08-29T02:10:48.351Z,99.90
2022-08-29T02:13:15.308Z,99.90
2022-08-29T02:15:42.302Z,99.90
2022-08-29T02:19:05.810Z,99.90
2022-08-29T02:21:33.035Z,99.90
2022-08-29T02:24:21.342Z,99.90
2022-08-29T02:26:49.553Z,99.90
2022-08-29T02:29:37.204Z,99.90
2022-08-29T02:32:12.203Z,99.90
2022-08-29T02:35:16.193Z,99.90
2022-08-29T02:38:03.025Z,99.90
2022-08-29T02:40:31.866Z,99.90
2022-08-29T02:42:59.818Z,99.90
2022-08-29T02:45:41.542Z,99.90
2022-08-29T02:48:09.299Z,99.90
2022-08-29T02:50:36.389Z,99.90
2022-08-29T02:53:03.364Z,99.90
2022-08-29T02:55:32.472Z,99.90
2022-08-29T02:57:59.478Z,99.90
2022-08-29T03:00:28.211Z,99.90
2022-08-29T03:03:00.578Z,99.90
2022-08-29T03:05:31.114Z,99.90
2022-08-29T03:08:00.170Z,99.90
2022-08-29T03:10:27.547Z,99.90
2022-08-29T03:12:55.212Z,99.90
2022-08-29T03:15:23.664Z,99.90
2022-08-29T03:17:51.066Z,99.90
2022-08-29T03:20:20.800Z,99.90
2022-08-29T03:22:50.338Z,99.90
2022-08-29T03:25:17.668Z,99.90
2022-08-29T03:27:45.754Z,99.90
2022-08-29T03:30:15.096Z,99.90
2022-08-29T03:32:45.217Z,99.90
2022-08-29T03:35:13.797Z,99.90
2022-08-29T03:37:41.215Z,99.90
2022-08-29T03:40:10.480Z,99.90
2022-08-29T03:42:37.614Z,99.90
2022-08-29T03:45:07.059Z,99.90
2022-08-29T03:47:37.088Z,99.90
2022-08-29T03:50:04.700Z,99.90
2022-08-29T03:52:31.699Z,99.90
2022-08-29T03:54:58.709Z,99.90
2022-08-29T03:57:27.098Z,99.90
2022-08-29T03:59:58.255Z,99.90
2022-08-29T04:02:25.306Z,99.90
2022-08-29T04:05:08.445Z,99.90
2022-08-29T04:07:39.440Z,99.90
2022-08-29T04:10:08.020Z,99.90
2022-08-29T04:12:35.045Z,99.90
2022-08-29T04:15:05.823Z,99.90
2022-08-29T04:17:33.396Z,99.90
2022-08-29T04:20:00.460Z,99.90
2022-08-29T04:22:27.788Z,99.90
2022-08-29T04:24:54.820Z,99.90
2022-08-29T04:27:21.924Z,99.90
2022-08-29T04:29:50.167Z,99.90
2022-08-29T04:32:17.910Z,99.90
2022-08-29T04:34:44.984Z,99.90
2022-08-29T04:37:12.796Z,99.90
2022-08-29T04:39:40.310Z,99.90
2022-08-29T04:42:07.639Z,99.90
2022-08-29T04:44:34.881Z,99.90
2022-08-29T04:47:01.935Z,99.90
2022-08-29T04:49:29.111Z,99.90
2022-08-29T04:51:56.138Z,99.90
2022-08-29T04:54:23.490Z,99.90
2022-08-29T04:56:50.458Z,99.90
2022-08-29T04:59:18.346Z,99.90
2022-08-29T05:01:47.728Z,99.90
2022-08-29T05:04:14.947Z,99.90
2022-08-29T05:06:42.055Z,99.90
2022-08-29T05:09:10.217Z,99.90
2022-08-29T05:11:37.257Z,99.90
2022-08-29T05:14:04.528Z,99.90
2022-08-29T05:16:31.823Z,99.90
2022-08-29T05:18:59.899Z,99.90
2022-08-29T05:21:35.205Z,99.90
2022-08-29T05:24:05.702Z,99.90
2022-08-29T05:26:36.189Z,99.90
2022-08-29T05:29:08.519Z,99.90
2022-08-29T05:31:37.618Z,99.90
2022-08-29T05:34:11.284Z,99.90
2022-08-29T05:36:52.506Z,99.90
2022-08-29T05:39:19.895Z,99.90
2022-08-29T05:41:46.918Z,99.90
2022-08-29T05:44:14.204Z,99.90
2022-08-29T05:46:41.317Z,99.90
2022-08-29T05:49:09.008Z,99.90
2022-08-29T05:51:39.663Z,99.90
2022-08-29T05:54:08.450Z,99.90
2022-08-29T05:56:35.736Z,99.90
2022-08-29T05:59:03.000Z,99.80
2022-08-29T06:01:39.912Z,95.90
2022-08-29T06:04:07.203Z,93.00
2022-08-29T06:06:34.568Z,90.90
2022-08-29T06:09:01.918Z,89.50
2022-08-29T06:11:31.637Z,86.00
2022-08-29T06:14:00.084Z,83.60
2022-08-29T06:16:28.702Z,81.70
2022-08-29T06:18:56.389Z,79.80
2022-08-29T06:21:26.790Z,78.10
2022-08-29T06:23:54.612Z,75.70
2022-08-29T06:26:21.627Z,74.90
2022-08-29T06:29:14.915Z,74.00
2022-08-29T06:31:44.735Z,73.10
2022-08-29T06:34:11.801Z,72.20
2022-08-29T06:36:39.449Z,71.10
2022-08-29T06:39:09.430Z,70.40
2022-08-29T06:41:39.892Z,70.30
2022-08-29T06:44:08.102Z,69.30
2022-08-29T06:46:38.974Z,68.60
2022-08-29T06:49:15.470Z,68.50
2022-08-29T06:51:44.792Z,68.80
2022-08-29T06:54:12.965Z,68.30
2022-08-29T06:56:42.385Z,68.60
2022-08-29T06:59:10.233Z,68.30
2022-08-29T07:01:37.803Z,69.10
2022-08-29T07:04:04.966Z,68.50
2022-08-29T07:06:32.649Z,67.40
2022-08-29T07:09:00.543Z,66.90
2022-08-29T07:11:30.723Z,68.70
2022-08-29T07:14:00.919Z,67.10
2022-08-29T07:16:31.643Z,67.40
2022-08-29T07:19:02.584Z,67.60
2022-08-29T07:21:29.946Z,67.20
2022-08-29T07:23:58.710Z,67.50
2022-08-29T07:26:32.492Z,66.90
2022-08-29T07:29:03.665Z,68.50
2022-08-29T07:31:31.465Z,67.80
2022-08-29T07:34:02.721Z,67.70
2022-08-29T07:36:34.380Z,68.30
2022-08-29T07:39:04.522Z,67.40
2022-08-29T07:41:31.751Z,70.00
2022-08-29T07:43:59.090Z,70.60
2022-08-29T07:46:27.197Z,70.40
2022-08-29T07:48:54.959Z,70.50
2022-08-29T07:51:23.985Z,70.60
2022-08-29T07:53:52.196Z,71.40
2022-08-29T07:56:25.534Z,72.00
2022-08-29T07:58:53.383Z,74.10
2022-08-29T08:01:21.851Z,74.60
2022-08-29T08:03:50.967Z,74.90
2022-08-29T08:06:21.622Z,75.50
2022-08-29T08:08:51.206Z,78.00
2022-08-29T08:11:19.843Z,81.60
2022-08-29T08:13:47.958Z,82.50
2022-08-29T08:16:19.385Z,83.60
2022-08-29T08:18:46.871Z,83.50
2022-08-29T08:21:14.463Z,81.40
2022-08-29T08:23:43.266Z,82.90
2022-08-29T08:26:12.906Z,85.80
2022-08-29T08:28:42.758Z,88.00
2022-08-29T08:31:12.318Z,87.50
2022-08-29T08:33:44.395Z,85.00
2022-08-29T08:36:21.216Z,88.00
2022-08-29T08:38:49.757Z,86.50
2022-08-29T08:41:27.683Z,84.90
2022-08-29T08:44:03.079Z,82.70
2022-08-29T08:46:38.859Z,86.40
2022-08-29T08:49:21.963Z,85.00
2022-08-29T08:51:57.673Z,84.50
2022-08-29T08:54:27.790Z,85.30
2022-08-29T08:57:03.495Z,85.90
2022-08-29T08:59:44.109Z,86.00
2022-08-29T09:02:35.549Z,85.70
2022-08-29T09:05:08.914Z,83.50
2022-08-29T09:08:02.246Z,82.40
2022-08-29T09:10:32.579Z,81.80
2022-08-29T09:13:26.636Z,81.40
2022-08-29T09:15:56.695Z,79.00
2022-08-29T09:18:35.405Z,80.40
2022-08-29T09:21:39.397Z,79.00
2022-08-29T09:24:05.786Z,79.10
2022-08-29T09:26:33.292Z,77.40
2022-08-29T09:29:00.554Z,78.90
2022-08-29T09:31:33.526Z,80.80
2022-08-29T09:34:11.704Z,82.20
2022-08-29T09:36:49.363Z,84.30
2022-08-29T09:39:26.227Z,85.70
2022-08-29T09:41:57.534Z,86.60
2022-08-29T09:44:31.420Z,86.90
2022-08-29T09:47:27.392Z,88.20
2022-08-29T09:50:18.458Z,87.30
2022-08-29T09:53:02.408Z,83.80
2022-08-29T09:55:36.964Z,81.00
2022-08-29T09:58:26.859Z,81.70
2022-08-29T10:01:12.142Z,83.50
2022-08-29T10:03:44.315Z,81.60
2022-08-29T10:06:16.349Z,77.60
2022-08-29T10:08:55.555Z,71.90
2022-08-29T10:11:42.378Z,72.60
2022-08-29T10:14:19.633Z,73.50
2022-08-29T10:17:20.943Z,74.20
2022-08-29T10:19:48.825Z,73.20
2022-08-29T10:22:36.289Z,71.00
2022-08-29T10:25:16.415Z,71.00
2022-08-29T10:28:00.971Z,67.10
2022-08-29T10:30:34.366Z,67.80
2022-08-29T10:33:43.163Z,69.20
2022-08-29T10:36:20.502Z,66.20
2022-08-29T10:38:58.278Z,68.60
2022-08-29T10:42:22.112Z,70.70
2022-08-29T10:44:56.554Z,69.10
2022-08-29T10:47:46.104Z,68.70
2022-08-29T10:50:43.486Z,68.20
2022-08-29T10:53:19.111Z,64.20
2022-08-29T10:55:55.269Z,65.20
2022-08-29T10:58:38.429Z,64.80
2022-08-29T11:01:15.774Z,64.30
2022-08-29T11:04:11.231Z,63.70
2022-08-29T11:06:45.033Z,64.30
2022-08-29T11:09:47.957Z,62.80
2022-08-29T11:12:50.350Z,61.10
2022-08-29T11:15:42.777Z,61.00
2022-08-29T11:18:13.308Z,62.70
2022-08-29T11:20:47.490Z,65.60
2022-08-29T11:23:14.404Z,64.90
2022-08-29T11:25:42.538Z,64.00
2022-08-29T11:28:39.202Z,63.30
2022-08-29T11:31:25.964Z,63.30
2022-08-29T11:34:01.735Z,63.20
2022-08-29T11:36:48.702Z,64.80
2022-08-29T11:39:41.152Z,66.00
2022-08-29T11:42:12.141Z,67.40
2022-08-29T11:44:52.764Z,69.80
2022-08-29T11:47:33.894Z,70.40
2022-08-29T11:50:21.651Z,71.10
2022-08-29T11:52:54.599Z,71.40
2022-08-29T11:55:36.073Z,70.40
2022-08-29T11:58:17.827Z,70.70
2022-08-29T12:00:44.823Z,72.00
2022-08-29T12:03:33.801Z,72.60
2022-08-29T12:06:19.796Z,71.60
2022-08-29T12:09:13.620Z,73.50
2022-08-29T12:12:12.778Z,72.90
2022-08-29T12:14:51.006Z,72.30
2022-08-29T12:17:20.178Z,72.70
2022-08-29T12:20:00.047Z,73.90
2022-08-29T12:22:52.135Z,73.70
2022-08-29T12:25:28.251Z,70.40
2022-08-29T12:28:31.226Z,70.20
2022-08-29T12:30:59.434Z,67.60
2022-08-29T12:33:40.252Z,65.60
2022-08-29T12:36:25.881Z,65.20
2022-08-29T12:39:07.911Z,66.00
2022-08-29T12:41:42.748Z,68.30
2022-08-29T12:44:16.692Z,68.10
2022-08-29T12:46:46.705Z,69.50
2022-08-29T12:49:30.764Z,70.30
2022-08-29T12:52:05.089Z,70.30
2022-08-29T12:54:39.674Z,68.90
2022-08-29T12:57:08.749Z,69.80
2022-08-29T12:59:36.795Z,70.90
2022-08-29T13:02:04.130Z,70.80
2022-08-29T13:04:36.502Z,70.50
2022-08-29T13:07:08.160Z,71.00
2022-08-29T13:09:39.297Z,72.50
2022-08-29T13:12:12.445Z,72.70
2022-08-29T13:15:19.426Z,72.40
2022-08-29T13:17:49.423Z,73.20
2022-08-29T13:20:38.385Z,75.10
2022-08-29T13:23:34.863Z,74.30
2022-08-29T13:26:11.297Z,71.40
2022-08-29T13:28:52.152Z,68.80
2022-08-29T13:31:19.291Z,68.50
2022-08-29T13:33:46.253Z,68.00
2022-08-29T13:36:37.193Z,69.20
2022-08-29T13:39:41.089Z,67.30
2022-08-29T13:42:25.218Z,66.20
2022-08-29T13:45:05.738Z,64.80
2022-08-29T13:47:40.609Z,64.10
2022-08-29T13:50:12.122Z,64.80
2022-08-29T13:52:39.332Z,66.00
2022-08-29T13:55:08.482Z,67.00
2022-08-29T13:57:35.922Z,68.90
2022-08-29T14:00:18.194Z,70.10
2022-08-29T14:02:52.643Z,70.80
2022-08-29T14:05:19.770Z,71.20
2022-08-29T14:07:59.887Z,70.00
2022-08-29T14:10:26.841Z,69.00
2022-08-29T14:12:53.812Z,67.60
2022-08-29T14:15:35.391Z,66.20
2022-08-29T14:18:03.879Z,65.20
2022-08-29T14:20:31.426Z,65.70
2022-08-29T14:23:03.146Z,65.40
2022-08-29T14:25:30.191Z,65.70
2022-08-29T14:27:57.388Z,63.80
2022-08-29T14:30:25.217Z,65.90
2022-08-29T14:32:52.881Z,65.20
2022-08-29T14:35:26.766Z,63.10
2022-08-29T14:37:59.784Z,63.40
2022-08-29T14:40:28.842Z,62.90
2022-08-29T14:42:57.206Z,61.80
2022-08-29T14:45:24.271Z,62.20
2022-08-29T14:47:51.454Z,63.40
2022-08-29T14:50:19.126Z,63.30
2022-08-29T14:52:46.414Z,64.70
2022-08-29T14:55:14.290Z,65.20
2022-08-29T14:57:43.430Z,64.90
2022-08-29T15:00:14.435Z,65.60
2022-08-29T15:02:42.191Z,68.70
2022-08-29T15:05:10.308Z,67.70
2022-08-29T15:07:37.471Z,67.90
2022-08-29T15:10:06.305Z,67.50
2022-08-29T15:12:33.567Z,69.10
2022-08-29T15:15:00.733Z,70.20
2022-08-29T15:17:28.060Z,71.10
2022-08-29T15:22:42.621Z,69.40
2022-08-29T15:25:09.881Z,70.20
2022-08-29T15:27:36.935Z,70.00
2022-08-29T15:30:04.952Z,68.90
2022-08-29T15:32:32.218Z,68.00
2022-08-29T15:34:59.181Z,67.30
2022-08-29T15:37:26.348Z,69.20
2022-08-29T15:39:55.065Z,69.70
2022-08-29T15:42:28.725Z,69.40
2022-08-29T15:44:56.697Z,69.60
2022-08-29T15:47:26.293Z,70.90
2022-08-29T15:49:53.889Z,70.50
2022-08-29T15:52:21.286Z,71.00
2022-08-29T15:54:48.272Z,69.30
2022-08-29T15:57:15.446Z,67.90
2022-08-29T15:59:57.718Z,67.50
2022-08-29T16:02:26.433Z,67.50
2022-08-29T16:04:57.001Z,68.90
2022-08-29T16:07:29.093Z,67.40
2022-08-29T16:09:57.526Z,69.00
2022-08-29T16:12:26.108Z,66.60
2022-08-29T16:15:01.219Z,67.10
2022-08-29T16:17:31.158Z,70.20
2022-08-29T16:19:59.664Z,69.50
2022-08-29T16:22:28.502Z,70.00
2022-08-29T16:25:01.558Z,69.90
2022-08-29T16:27:28.660Z,69.30
2022-08-29T16:29:57.442Z,69.20
2022-08-29T16:32:24.668Z,69.70
2022-08-29T16:34:51.745Z,70.10
2022-08-29T16:37:19.213Z,70.50
2022-08-29T16:39:46.256Z,71.10
2022-08-29T16:42:13.357Z,71.30
2022-08-29T16:44:42.783Z,71.10
2022-08-29T16:47:11.255Z,71.20
2022-08-29T16:49:38.281Z,71.80
2022-08-29T16:52:06.384Z,71.70
2022-08-29T16:54:33.645Z,71.70
2022-08-29T16:57:00.602Z,72.20
2022-08-29T16:59:27.918Z,72.70
2022-08-29T17:01:55.800Z,72.90
2022-08-29T17:04:26.235Z,73.30
2022-08-29T17:06:54.513Z,74.10
2022-08-29T17:09:23.576Z,73.10
2022-08-29T17:11:52.261Z,73.50
2022-08-29T17:14:20.539Z,73.50
2022-08-29T17:16:48.854Z,73.80
2022-08-29T17:19:16.271Z,73.00
2022-08-29T17:21:44.244Z,72.30
2022-08-29T17:24:11.950Z,72.80
2022-08-29T17:26:43.495Z,73.60
2022-08-29T17:29:11.266Z,73.80
2022-08-29T17:31:39.031Z,73.60
2022-08-29T17:34:13.469Z,73.90
2022-08-29T17:36:43.635Z,73.80
2022-08-29T17:39:12.788Z,74.70
2022-08-29T17:41:40.061Z,75.50
2022-08-29T17:44:08.844Z,75.30
2022-08-29T17:46:36.277Z,75.90
2022-08-29T17:49:07.858Z,76.50
2022-08-29T17:51:35.696Z,77.30
2022-08-29T17:54:04.510Z,78.00
2022-08-29T17:57:22.657Z,78.70
2022-08-29T17:59:49.645Z,80.00
2022-08-29T18:02:16.735Z,81.70
2022-08-29T18:04:43.959Z,81.30
2022-08-29T18:07:11.140Z,82.30
2022-08-29T18:09:38.564Z,82.60
2022-08-29T18:12:06.040Z,83.30
2022-08-29T18:14:33.792Z,83.70
2022-08-29T18:17:00.918Z,84.10
2022-08-29T18:19:28.133Z,84.50
2022-08-29T18:21:55.241Z,85.10
2022-08-29T18:24:22.566Z,85.60
2022-08-29T18:26:50.291Z,86.30
2022-08-29T18:29:18.361Z,87.30
2022-08-29T18:31:45.453Z,87.60
2022-08-29T18:34:14.388Z,87.90
2022-08-29T18:36:43.342Z,89.00
2022-08-29T18:39:10.908Z,89.80
2022-08-29T18:41:38.183Z,90.10
2022-08-29T18:44:05.717Z,90.10
2022-08-29T18:46:33.353Z,90.30
2022-08-29T18:49:02.095Z,90.40
2022-08-29T18:51:29.367Z,90.70
2022-08-29T18:53:57.156Z,90.70
2022-08-29T18:56:24.228Z,90.90
2022-08-29T18:58:54.696Z,91.40
2022-08-29T19:01:28.367Z,91.40
2022-08-29T19:03:57.918Z,91.90
2022-08-29T19:06:26.163Z,92.10
2022-08-29T19:08:54.315Z,92.20
2022-08-29T19:11:21.427Z,92.60
2022-08-29T19:13:49.230Z,93.00
2022-08-29T19:16:21.498Z,93.50
2022-08-29T19:18:48.705Z,93.70
2022-08-29T19:21:15.816Z,94.10
2022-08-29T19:23:46.056Z,94.00
2022-08-29T19:26:34.560Z,94.20
2022-08-29T19:29:06.542Z,94.60
2022-08-29T19:31:33.630Z,95.00
2022-08-29T19:34:00.857Z,94.80
2022-08-29T19:36:28.055Z,95.00
2022-08-29T19:38:56.131Z,95.10
2022-08-29T19:41:25.087Z,95.60
2022-08-29T19:43:52.946Z,96.10
2022-08-29T19:46:22.126Z,96.50
2022-08-29T19:48:51.486Z,97.00
2022-08-29T19:51:24.701Z,97.20
2022-08-29T19:53:57.305Z,97.30
2022-08-29T19:56:25.069Z,97.60
2022-08-29T19:58:53.692Z,97.80
2022-08-29T20:01:20.823Z,98.40
2022-08-29T20:03:48.947Z,98.90
2022-08-29T20:06:15.959Z,99.40
2022-08-29T20:08:47.974Z,99.90
2022-08-29T20:11:21.171Z,99.90
2022-08-29T20:13:51.257Z,99.90
2022-08-29T20:16:21.578Z,99.90
2022-08-29T20:18:49.421Z,99.90
2022-08-29T20:21:19.107Z,99.90
2022-08-29T20:23:57.228Z,99.90
2022-08-29T20:26:25.980Z,99.90
2022-08-29T20:28:54.246Z,99.90
2022-08-29T20:31:28.324Z,99.90
2022-08-29T20:33:55.444Z,99.90
2022-08-29T20:36:44.425Z,99.90
2022-08-29T20:39:15.291Z,99.90
2022-08-29T20:41:47.079Z,99.90
2022-08-29T20:44:18.386Z,99.90
2022-08-29T20:46:45.536Z,99.90
2022-08-29T20:49:18.172Z,99.90
2022-08-29T20:51:45.255Z,99.90
2022-08-29T20:54:18.310Z,99.90
2022-08-29T20:56:45.913Z,99.90
2022-08-29T20:59:18.265Z,99.90
2022-08-29T21:01:46.383Z,99.90
2022-08-29T21:04:33.501Z,99.90
2022-08-29T21:07:03.898Z,99.90
2022-08-29T21:09:31.261Z,99.90
2022-08-29T21:12:07.739Z,99.90
2022-08-29T21:14:34.999Z,99.90
2022-08-29T21:17:02.885Z,99.90
2022-08-29T21:19:30.353Z,99.90
2022-08-29T21:22:00.161Z,99.90
2022-08-29T21:24:29.627Z,99.90
2022-08-29T21:26:57.629Z,99.90
2022-08-29T21:29:24.935Z,99.90
2022-08-29T21:31:54.105Z,99.90
2022-08-29T21:34:25.585Z,99.90
2022-08-29T21:36:52.766Z,99.90
2022-08-29T21:39:28.534Z,99.90
2022-08-29T21:41:57.044Z,99.90
2022-08-29T21:44:24.077Z,99.90
2022-08-29T21:46:51.388Z,99.90
2022-08-29T21:49:21.576Z,99.90
2022-08-29T21:51:50.715Z,99.90
2022-08-29T21:54:19.151Z,99.90
2022-08-29T21:56:46.875Z,99.90
2022-08-29T21:59:15.243Z,99.90
2022-08-29T22:01:45.676Z,99.90
2022-08-29T22:04:19.168Z,99.90
2022-08-29T22:06:55.043Z,99.90
2022-08-29T22:09:23.350Z,99.90
2022-08-29T22:12:03.884Z,99.90
2022-08-29T22:14:50.232Z,99.90
2022-08-29T22:17:17.218Z,99.90
2022-08-29T22:19:44.213Z,99.90
2022-08-29T22:22:11.547Z,99.90
2022-08-29T22:24:38.692Z,99.90
2022-08-29T22:27:06.204Z,99.90
2022-08-29T22:29:50.298Z,99.90
2022-08-29T22:32:17.296Z,99.90
2022-08-29T22:34:44.255Z,99.90
2022-08-29T22:37:31.779Z,99.90
2022-08-29T22:39:59.006Z,99.90
2022-08-29T22:42:26.179Z,99.90
2022-08-29T22:45:04.143Z,99.90
2022-08-29T22:47:32.913Z,99.90
2022-08-29T22:49:59.871Z,99.90
2022-08-29T22:53:11.889Z,99.90
2022-08-29T22:55:38.915Z,99.90
2022-08-29T22:58:07.328Z,99.90
2022-08-29T23:00:59.237Z,99.90
2022-08-29T23:03:26.233Z,99.90
2022-08-29T23:05:53.648Z,99.90
2022-08-29T23:08:42.827Z,99.90
2022-08-29T23:11:10.159Z,99.90
2022-08-29T23:13:37.171Z,99.90
2022-08-29T23:16:36.413Z,99.90
2022-08-29T23:19:04.677Z,99.90
2022-08-29T23:21:32.769Z,99.90
2022-08-29T23:24:21.722Z,99.90
2022-08-29T23:26:49.014Z,99.90
2022-08-29T23:29:16.193Z,99.90
2022-08-29T23:32:11.043Z,99.90
2022-08-29T23:34:38.069Z,99.90
2022-08-29T23:37:05.059Z,99.90
2022-08-29T23:39:56.243Z,99.90
2022-08-29T23:42:23.274Z,99.90
2022-08-29T23:44:50.212Z,99.90
2022-08-29T23:47:44.203Z,99.90
2022-08-29T23:50:14.316Z,99.90
2022-08-29T23:52:43.519Z,99.90
2022-08-29T23:55:35.843Z,99.90
2022-08-29T23:58:04.368Z,99.90
